SHMÚ vydal meteorologické výstrahy na Vietor na horách Zobraziť výstrahy

HYDROLOGICKÁ VÝSTRAHA   Povodeň z topiaceho sa snehu a dažďa 1. stupeň Zobraziť výstrahy

TAF

Letisková predpoveď TAF

Informácie o správe TAF

25.04.2017 - 17:00 UTC

TAF AMD LZPP 252010Z 2520/2603 CNL=

25.04.2017 - 20:00 UTC

TAF LZSL 252000Z 2521/2606 20003KT 9999 SCT060=
TAF LZZI 252000Z 2521/2606 34004KT 9999 FEW050 SCT060
    PROB40 TEMPO 2521/2600 -SHRA SCT045 BKN050=

25.04.2017 - 17:00 UTC

TAF LZSL 251700Z 2518/2603 20005KT 9999 FEW050
    TEMPO 2518/2520 -SHRA SCT045TCU SCT050=
TAF LZPP 251700Z 2518/2603 18008KT CAVOK=
TAF LZZI 251700Z 2518/2603 22008KT 9999 FEW050 SCT060
    TEMPO 2518/2522 -SHRA SCT045TCU SCT050
    PROB30 TEMPO 2518/2519 -TSRA SCT040CB BKN045=

25.04.2017 - 17:00 UTC

TAF LZIB 251700Z 2518/2618 21012KT CAVOK
    TEMPO 2609/2618 22015G25KT 9999 FEW045 SCT090=
TAF LZKZ 251700Z 2518/2618 21010KT CAVOK
    PROB40 TEMPO 2518/2520 19015G25KT 9999 FEW050CB SCT060
    TEMPO 2609/2618 20015G25KT=
TAF LZTT 251700Z 2518/2618 20010KT 9999 SCT055
    TEMPO 2518/2521 -SHRA SCT050TCU SCT055
    PROB30 TEMPO 2518/2520 25015G25KT -TSRA SCT045CB BKN050
    TEMPO 2615/2618 -SHRA SCT045TCU SCT050=

25.04.2017 - 11:00 UTC

TAF AMD LZKZ 251629Z 2516/2612 21012KT CAVOK
    TEMPO 2516/2518 19015G25KT 9999 -TSRA SCT040CB SCT050=

25.04.2017 - 14:00 UTC

TAF LZSL 251400Z 2515/2600 16005KT 9999 FEW045 SCT060
    TEMPO 2515/2519 -SHRA SCT040TCU BKN045
    PROB30 TEMPO 2515/2518 -TSRA SCT035CB BKN040=
TAF LZPP 251400Z 2515/2600 16015KT 9999 FEW040 SCT080
    TEMPO 2515/2518 -SHRA SCT038TCU BKN040
    PROB30 TEMPO 2515/2517 -TSRA SCT035CB BKN040=
TAF LZZI 251400Z 2515/2600 24008KT 9999 FEW045 BKN060
    TEMPO 2515/2521 -SHRA SCT040TCU BKN045
    PROB30 TEMPO 2515/2518 -TSRA SCT040CB BKN043=

25.04.2017 - 11:00 UTC

TAF LZIB 251100Z 2512/2612 16012KT 9999 FEW040 SCT090
    PROB30 TEMPO 2514/2518 24015KT -TSRA SCT040CB BKN043
    BECMG 2518/2520 21012KT CAVOK=
TAF LZKZ 251100Z 2512/2612 22012KT CAVOK
    TEMPO 2512/2516 9999 SCT040 SCT100=
TAF LZTT 251100Z 2512/2612 24010KT 9999 SCT045
    TEMPO 2512/2520 -SHRA SCT045TCU SCT048
    PROB30 TEMPO 2514/2518 28015G25KT -TSRA SCT043CB SCT045=

25.04.2017 - 11:00 UTC

TAF LZSL 251100Z 2512/2521 16005KT 9999 FEW045
    TEMPO 2513/2519 -SHRA SCT038TCU BKN040
    PROB30 TEMPO 2514/2518 -TSRA SCT035CB BKN040=
TAF LZPP 251100Z 2512/2521 16015KT 9999 FEW040 SCT080
    TEMPO 2513/2518 -SHRA SCT038TCU BKN040
    PROB30 TEMPO 2514/2517 -TSRA SCT035CB BKN040=
TAF LZZI 251100Z 2512/2521 24008KT 9999 FEW045 SCT090
    TEMPO 2513/2521 -SHRA SCT040TCU BKN045
    PROB30 TEMPO 2514/2518 -TSRA SCT040CB BKN043=

25.04.2017 - 08:00 UTC

TAF LZSL 250800Z 2509/2518 12005KT 9999 BKN040
    TEMPO 2513/2518 -SHRA
    PROB30 TEMPO 2514/2518 -TSRA SCT035CB BKN040=
TAF LZPP 250800Z 2509/2518 16015KT 9999 FEW035 SCT080
    PROB40 TEMPO 2514/2517 SHRA SCT035TCU BKN040=
TAF LZZI 250800Z 2509/2518 20006KT 9999 FEW040 SCT090
    PROB40 TEMPO 2513/2517 SHRA SCT030TCU BKN035=

25.04.2017 - 05:00 UTC

TAF AMD LZIB 250522Z 2506/2606 03008KT 9999 BKN012
    BECMG 2507/2509 12012KT FEW035
    TEMPO 2509/2517 15015G25KT
    PROB40 TEMPO 2512/2520 9999 -TSRA FEW040CB SCT070=

25.04.2017 - 05:00 UTC

TAF LZIB 250500Z 2506/2606 03008KT CAVOK
    BECMG 2507/2509 12012KT
    TEMPO 2509/2517 15015G25KT
    PROB40 TEMPO 2512/2520 9999 -TSRA FEW040CB SCT070=
TAF LZKZ 250500Z 2506/2606 22010KT CAVOK
    PROB30 TEMPO 2506/2508 -RA BKN030
    BECMG 2508/2510 20015KT SCT045
    PROB40 TEMPO 2512/2520 VRB15G25KT 5000 TSRA BKN027 FEW030CB=
TAF LZTT 250500Z 2506/2606 24010KT 9999 SCT040
    BECMG 2507/2509 23011KT FEW015 BKN050
    PROB40 TEMPO 2511/2520 28015G25KT 5000 TSRA BKN023 FEW027CB=

25.04.2017 - 05:00 UTC

TAF LZSL 250500Z 2506/2515 04005KT 9999 BKN030
    PROB30 TEMPO 2506/2510 VRB02KT 5000 -RA BKN020=
TAF LZPP 250500Z 2506/2515 13012KT 9999 BKN022
    PROB40 TEMPO 2508/2515 15018KT=
TAF LZZI 250500Z 2506/2515 18005KT 9999 BKN030
    PROB40 TEMPO 2506/2515 VRB02KT 5000 BR BKN020=

25.04.2017 - 02:00 UTC

TAF LZSL 250200Z 2503/2512 04005KT 9999 BKN040
    PROB30 TEMPO 2503/2508 5000 -RA BKN030=
TAF LZZI 250200Z 2503/2512 18005KT 9999 BKN050
    PROB30 TEMPO 2503/2506 VRB02KT 5000 BR BKN030=

skok na menu ↑


skok na začiatok stránky ↑